Ellabell, Georgia
Current Conditions -  °F | °C
As of 1:58 AM on Thursday 18 Dec 2014 (Local Time) from KLHW Reporting Station
Clear Clear  
Wind Chill: 40°   Ceiling: Unl
Heat Index: 40°   Visibility: 10mi
Dew Point: 38°   Wind: 0mph
Humidity: 92%   Direction: NA
Pressure: 30.12"   Gusts: NA
Location:  32.12°N, 81.49°W
Report Text: KLHW 180658Z AUTO 00000KT 10SM CLR 05/03 A3012 RMK AO2 SLP203 T00450033
Loading
Personal Weather Stations






























Interactive Weather Map New forecast layout! Learn more

10-Day Weather Forecast

Advertisements
Track Severe Weather on mobile